Hlavní strana
METAR-TAF:

METAR-TAF

Letiště :

Carrollton, Georgie, Spojené státy americké

zeměpisná šířka: 33-37-54N, zeměpisná délka: 085-09-08W, výška: 354 m

Aktuální stav počasí

Zpráva byla vytvořena před 25 minutami, v 01:15 UTC
Západojihozápadní vítr 3 kt
Teplota 11°C
Vlhkost vzduchu 100%
Tlak 1021 hPa
Viditelnost: 11.3 km
Oblačno až skoro zataženo ve výšce 700 ft
Oblačno až skoro zataženo ve výšce 1400 ft
Zataženo ve výšce 11000 ft
mrholení

METAR: KCTJ 190115Z AUTO 24003KT 7SM DZ BKN007 BKN014 OVC110 11/11 A3015 RMK AO2 T01110110

Čas: 20:40 (01:40 UTC)


TAF: chybějící

Stav a předpovědi počasí z více než 4 000 letišť (zprávy METAR a TAF).

Červené a žluté tečky na mapě představují dostupné meteorologické stanice.

Když kurzor umístíte na tečku, zobrazí se název stanice.

Pak kliknutím zobrazíte stav a předpověď počasí.

Chcete-li změnit mapu, kliknutím na zelené tlačítko se znaménkem +mapu přiblížíte, kliknutím na zelené tlačítko se znaménkem – mapu oddálíte a kliknutím na zelené šipky přejdete na sousední mapy.


METAR-TAF: